Ghurian, Afghanistan
Current Conditions -  °F | °C
As of 7:54 PM on Monday 26 Jan 2015 (Local Time) from OAHR Reporting Station
Clear Clear  
Wind Chill: 34°   Ceiling: Unl
Heat Index: 34°   Visibility: 5mi
Dew Point: 25°   Wind: 2mph
Humidity: 70%   Direction: 300°WNW
Pressure: 30.36"   Gusts: NA
Location:  34.34°N, 61.47°E
Report Text: OAHR 261554Z 30002KT 8000 NSC 01/M04 Q1028 RMK SCK VIS MIN 8000 BLU
Loading
Personal Weather Stations






























Interactive Weather Map New forecast layout! Learn more

10-Day Weather Forecast

Advertisements
Track Severe Weather on mobile